createdAt,value
2019-04-01T00:04:44.386Z,5.90
2019-04-01T00:09:51.509Z,5.13
2019-04-01T00:15:00.331Z,4.13
2019-04-01T00:20:08.405Z,3.97
2019-04-01T00:25:15.479Z,3.97
2019-04-01T00:30:22.588Z,4.12
2019-04-01T00:35:29.713Z,4.03
2019-04-01T00:40:37.440Z,4.97
2019-04-01T00:45:46.454Z,4.37
2019-04-01T00:50:53.729Z,3.57
2019-04-01T00:56:00.924Z,3.50
2019-04-01T01:01:08.229Z,3.13
2019-04-01T01:06:15.894Z,4.03
2019-04-01T01:11:23.903Z,3.80
2019-04-01T01:16:31.222Z,3.22
2019-04-01T01:21:38.810Z,9.07
2019-04-01T01:26:45.967Z,6.03
2019-04-01T01:31:53.068Z,5.00
2019-04-01T01:37:00.287Z,3.77
2019-04-01T01:42:07.611Z,3.43
2019-04-01T01:47:14.795Z,3.30
2019-04-01T01:52:21.920Z,3.27
2019-04-01T01:57:29.210Z,4.20
2019-04-01T02:02:36.423Z,4.80
2019-04-01T02:07:45.521Z,4.80
2019-04-01T02:12:52.752Z,3.80
2019-04-01T02:17:59.958Z,4.33
2019-04-01T02:23:07.186Z,5.73
2019-04-01T02:28:14.589Z,5.28
2019-04-01T02:33:21.848Z,5.37
2019-04-01T02:38:29.049Z,5.07
2019-04-01T02:43:37.126Z,4.00
2019-04-01T02:48:44.376Z,3.70
2019-04-01T02:53:51.780Z,7.10
2019-04-01T02:58:59.040Z,7.43
2019-04-01T03:04:06.257Z,10.00
2019-04-01T03:09:13.395Z,8.93
2019-04-01T03:14:20.629Z,10.30
2019-04-01T03:19:27.896Z,9.60
2019-04-01T03:24:35.613Z,8.87
2019-04-01T03:29:43.843Z,10.30
2019-04-01T03:34:50.943Z,12.97
2019-04-01T03:39:58.080Z,19.07
2019-04-01T03:45:06.864Z,17.37
2019-04-01T03:50:14.181Z,16.30
2019-04-01T03:55:21.575Z,20.12
2019-04-01T04:00:28.705Z,24.60
2019-04-01T04:05:36.744Z,26.23
2019-04-01T04:10:55.398Z,31.27
2019-04-01T04:16:03.703Z,32.57
2019-04-01T04:21:13.075Z,24.17
2019-04-01T04:26:21.645Z,27.87
2019-04-01T04:31:28.853Z,23.60
2019-04-01T04:36:36.987Z,14.85
2019-04-01T04:41:44.175Z,9.37
2019-04-01T04:46:52.132Z,10.10
2019-04-01T04:51:59.401Z,10.47
2019-04-01T04:57:09.094Z,8.53
2019-04-01T05:02:16.826Z,7.72
2019-04-01T05:07:25.134Z,7.17
2019-04-01T05:12:32.340Z,5.03
2019-04-01T05:17:41.061Z,5.53
2019-04-01T05:22:50.074Z,9.80
2019-04-01T05:27:59.616Z,8.70
2019-04-01T05:33:06.714Z,18.10
2019-04-01T05:38:13.768Z,21.90
2019-04-01T05:43:20.916Z,26.33
2019-04-01T05:48:30.779Z,27.43
2019-04-01T05:53:37.909Z,23.50
2019-04-01T05:58:45.084Z,20.90
2019-04-01T06:03:52.629Z,12.67
2019-04-01T06:09:00.749Z,10.10
2019-04-01T06:14:08.358Z,8.00
2019-04-01T06:19:15.575Z,5.97
2019-04-01T06:24:24.702Z,4.87
2019-04-01T06:29:32.107Z,5.13
2019-04-01T06:34:52.342Z,4.57
2019-04-01T06:39:48.411Z,5.23
2019-04-01T06:44:55.824Z,4.23
2019-04-01T06:50:03.143Z,4.03
2019-04-01T06:55:10.503Z,3.70
2019-04-01T07:00:18.288Z,4.25
2019-04-01T07:05:26.141Z,7.80
2019-04-01T07:10:36.217Z,6.20
2019-04-01T07:15:43.517Z,4.60
2019-04-01T07:20:50.703Z,6.33
2019-04-01T07:25:57.884Z,7.40
2019-04-01T07:31:06.130Z,3.97
2019-04-01T07:36:13.412Z,7.83
2019-04-01T07:41:20.551Z,9.00
2019-04-01T07:46:27.660Z,5.40
2019-04-01T07:51:38.317Z,5.77
2019-04-01T07:56:43.561Z,9.50
2019-04-01T08:01:52.817Z,11.07
2019-04-01T08:06:59.497Z,4.77
2019-04-01T08:12:06.839Z,4.40
2019-04-01T08:17:14.122Z,3.23
2019-04-01T08:22:21.357Z,3.60
2019-04-01T08:27:29.090Z,4.10
2019-04-01T08:32:36.615Z,2.70
2019-04-01T08:37:43.931Z,2.60
2019-04-01T08:42:51.795Z,3.10
2019-04-01T08:47:59.244Z,2.40
2019-04-01T08:53:06.344Z,4.60
2019-04-01T08:58:13.450Z,3.50
2019-04-01T09:03:20.783Z,2.70
2019-04-01T09:08:28.418Z,1.37
2019-04-01T09:13:35.619Z,1.20
2019-04-01T09:18:42.715Z,1.73
2019-04-01T09:23:52.279Z,0.97
2019-04-01T09:28:59.937Z,1.90
2019-04-01T09:34:07.028Z,2.07
2019-04-01T09:39:14.591Z,1.60
2019-04-01T09:44:35.671Z,1.30
2019-04-01T09:49:30.366Z,1.20
2019-04-01T09:54:37.550Z,1.43
2019-04-01T09:59:44.633Z,1.67
2019-04-01T10:04:51.723Z,2.17
2019-04-01T10:09:59.581Z,6.63
2019-04-01T10:15:08.547Z,2.20
2019-04-01T10:20:16.023Z,1.27
2019-04-01T10:25:23.146Z,2.00
2019-04-01T10:30:30.345Z,2.90
2019-04-01T10:35:37.525Z,2.33
2019-04-01T10:40:46.074Z,1.93
2019-04-01T10:45:53.178Z,1.13
2019-04-01T10:51:00.602Z,10.10
2019-04-01T10:56:08.684Z,3.47
2019-04-01T11:01:15.681Z,3.87
2019-04-01T11:06:22.869Z,5.20
2019-04-01T11:11:29.953Z,2.57
2019-04-01T11:16:37.010Z,9.77
2019-04-01T11:21:44.110Z,1.90
2019-04-01T11:26:51.210Z,2.73
2019-04-01T11:31:59.273Z,2.80
2019-04-01T11:37:07.916Z,1.50
2019-04-01T11:42:15.373Z,6.93
2019-04-01T11:47:22.556Z,3.10
2019-04-01T11:52:31.215Z,4.47
2019-04-01T11:57:38.485Z,5.20
2019-04-01T12:02:46.328Z,3.40
2019-04-01T12:07:54.718Z,4.03
2019-04-01T12:13:01.806Z,1.83
2019-04-01T12:18:08.913Z,6.10
2019-04-01T12:23:16.093Z,1.73
2019-04-01T12:28:23.179Z,3.67
2019-04-01T12:33:30.520Z,3.47
2019-04-01T12:38:37.677Z,4.00
2019-04-01T12:43:44.876Z,13.55
2019-04-01T12:48:52.073Z,32.65
2019-04-01T12:53:59.127Z,5.05
2019-04-01T12:59:06.218Z,4.83
2019-04-01T13:04:13.389Z,18.10
2019-04-01T13:09:21.360Z,5.28
2019-04-01T13:14:29.281Z,3.20
2019-04-01T13:19:36.384Z,21.68
2019-04-01T13:24:43.476Z,13.45
2019-04-01T13:29:50.693Z,3.80
2019-04-01T13:34:57.851Z,9.85
2019-04-01T13:40:06.799Z,5.80
2019-04-01T13:45:14.433Z,4.20
2019-04-01T13:50:21.507Z,6.47
2019-04-01T13:55:28.604Z,9.20
2019-04-01T14:00:36.088Z,3.22
2019-04-01T14:05:43.276Z,4.00
2019-04-01T14:10:50.339Z,1.82
2019-04-01T14:15:57.423Z,10.00
2019-04-01T14:21:15.860Z,4.55
2019-04-01T14:26:13.543Z,4.45
2019-04-01T14:31:21.841Z,1.60
2019-04-01T14:36:29.013Z,10.00
2019-04-01T14:41:37.203Z,1.70
2019-04-01T14:46:44.418Z,5.55
2019-04-01T14:51:51.964Z,4.53
2019-04-01T14:56:59.011Z,9.80
2019-04-01T15:02:06.247Z,8.13
2019-04-01T15:07:15.154Z,8.18
2019-04-01T15:12:22.133Z,7.28
2019-04-01T15:17:29.231Z,12.50
2019-04-01T15:22:36.361Z,4.12
2019-04-01T15:27:43.363Z,3.37
2019-04-01T15:32:52.123Z,2.92
2019-04-01T15:37:59.494Z,13.20
2019-04-01T15:43:06.889Z,7.63
2019-04-01T15:48:14.007Z,7.47
2019-04-01T15:53:23.471Z,6.90
2019-04-01T15:58:30.086Z,7.10
2019-04-01T16:03:37.154Z,6.80
2019-04-01T16:08:45.526Z,7.37
2019-04-01T16:13:52.852Z,15.83
2019-04-01T16:19:00.527Z,4.90
2019-04-01T16:24:10.985Z,14.77
2019-04-01T16:29:17.291Z,9.33
2019-04-01T16:34:24.482Z,5.93
2019-04-01T16:39:31.597Z,5.70
2019-04-01T16:44:38.953Z,11.83
2019-04-01T16:49:46.314Z,13.40
2019-04-01T16:55:01.426Z,11.87
2019-04-01T17:00:09.998Z,27.00
2019-04-01T17:05:20.026Z,29.57
2019-04-01T17:10:27.325Z,35.37
2019-04-01T17:15:34.457Z,31.60
2019-04-01T17:20:41.559Z,28.90
2019-04-01T17:25:48.772Z,47.20
2019-04-01T17:30:59.523Z,40.97
2019-04-01T17:36:06.870Z,34.90
2019-04-01T17:41:13.917Z,43.70
2019-04-01T17:46:21.056Z,35.83
2019-04-01T17:51:28.146Z,32.17
2019-04-01T17:56:35.221Z,20.70
2019-04-01T18:01:42.512Z,15.63
2019-04-01T18:06:49.702Z,16.87
2019-04-01T18:11:56.855Z,26.17
2019-04-01T18:17:04.023Z,31.00
2019-04-01T18:22:11.130Z,46.77
2019-04-01T18:27:18.870Z,49.87
2019-04-01T18:32:26.044Z,42.07
2019-04-01T18:37:33.172Z,47.43
2019-04-01T18:42:40.286Z,48.00
2019-04-01T18:47:47.835Z,42.20
2019-04-01T18:52:55.035Z,81.37
2019-04-01T18:58:02.441Z,53.63
2019-04-01T19:03:10.604Z,56.17
2019-04-01T19:08:18.099Z,81.73
2019-04-01T19:13:25.285Z,85.07
2019-04-01T19:18:32.473Z,104.40
2019-04-01T19:23:39.662Z,66.33
2019-04-01T19:28:47.238Z,113.33
2019-04-01T19:33:54.790Z,146.90
2019-04-01T19:39:02.408Z,146.67
2019-04-01T19:44:11.092Z,64.95
2019-04-01T19:49:18.397Z,39.48
2019-04-01T19:54:31.246Z,36.53
2019-04-01T19:59:35.713Z,35.70
2019-04-01T20:04:44.126Z,23.67
2019-04-01T20:09:51.251Z,29.50
2019-04-01T20:14:58.940Z,28.97
2019-04-01T20:20:07.550Z,30.90
2019-04-01T20:25:16.906Z,30.27
2019-04-01T20:30:25.567Z,24.60
2019-04-01T20:35:34.508Z,20.97
2019-04-01T20:40:41.454Z,21.07
2019-04-01T20:45:48.738Z,31.57
2019-04-01T20:50:57.162Z,23.17
2019-04-01T20:56:04.743Z,20.70
2019-04-01T21:01:11.860Z,18.95
2019-04-01T21:06:18.974Z,19.27
2019-04-01T21:11:26.185Z,19.33
2019-04-01T21:16:33.271Z,16.03
2019-04-01T21:21:41.076Z,14.73
2019-04-01T21:26:48.345Z,16.77
2019-04-01T21:31:55.747Z,14.93
2019-04-01T21:37:03.417Z,16.43
2019-04-01T21:42:11.693Z,13.93
2019-04-01T21:47:19.193Z,17.67
2019-04-01T21:52:26.252Z,18.47
2019-04-01T21:57:33.421Z,15.50
2019-04-01T22:02:40.674Z,16.40
2019-04-01T22:07:47.727Z,20.70
2019-04-01T22:12:56.250Z,17.13
2019-04-01T22:18:03.489Z,28.87
2019-04-01T22:23:10.682Z,29.07
2019-04-01T22:28:19.249Z,33.13
2019-04-01T22:33:27.881Z,37.63
2019-04-01T22:38:35.585Z,23.30
2019-04-01T22:43:42.881Z,22.47
2019-04-01T22:48:50.097Z,26.53
2019-04-01T22:53:57.165Z,20.23
2019-04-01T22:59:04.455Z,24.07
2019-04-01T23:04:11.574Z,26.00
2019-04-01T23:09:18.584Z,25.80
2019-04-01T23:14:25.756Z,21.80
2019-04-01T23:19:34.253Z,20.40
2019-04-01T23:24:42.581Z,24.90
2019-04-01T23:29:51.100Z,28.65
2019-04-01T23:34:58.323Z,24.77
2019-04-01T23:40:06.792Z,25.40
2019-04-01T23:45:13.950Z,39.37
2019-04-01T23:50:21.139Z,26.73
2019-04-01T23:55:29.186Z,21.67
